Time;durP1;ratioP1;P1;durP2;ratioP2;P2;SDS_P1;SDS_P2;PMS_P1;PMS_P2;Temp;Humidity;BMP_temperature;BMP_pressure;BME280_temperature;BME280_humidity;BME280_pressure;Samples;Min_cycle;Max_cycle;Signal;HPM_P1;HPM_P2
2021/03/03 00:00:07;;;;;;;16.20;9.07;;;5.60;99.90;;;;;;6143936;28;20054;-85
2021/03/03 00:03:08;;;;;;;13.05;8.57;;;;;;;;;;6111150;28;20034;-86
2021/03/03 00:06:09;;;;;;;12.63;8.27;;;5.80;99.90;;;;;;6144108;28;20030;-86
2021/03/03 00:09:10;;;;;;;14.80;9.32;;;;;;;;;;6129117;28;20541;-85
2021/03/03 00:12:10;;;;;;;13.88;9.02;;;5.50;99.90;;;;;;6138866;28;20078;-87
2021/03/03 00:15:11;;;;;;;16.30;9.02;;;;;;;;;;6126910;28;20469;-88
2021/03/03 00:18:12;;;;;;;14.10;8.40;;;;;;;;;;6147888;28;20509;-85
2021/03/03 00:21:13;;;;;;;16.23;10.77;;;5.90;97.50;;;;;;6144202;28;20054;-85
2021/03/03 00:24:14;;;;;;;13.02;7.78;;;;;;;;;;6138889;28;20042;-85
2021/03/03 00:27:15;;;;;;;11.88;7.43;;;6.30;96.20;;;;;;6158634;28;20078;-86
2021/03/03 00:30:16;;;;;;;12.75;7.47;;;6.70;87.60;;;;;;6129247;28;20034;-89
2021/03/03 00:33:16;;;;;;;16.63;8.68;;;6.40;96.00;;;;;;6137600;28;20035;-85
2021/03/03 00:36:17;;;;;;;20.70;11.88;;;6.70;87.30;;;;;;6145585;28;20034;-85
2021/03/03 00:39:18;;;;;;;14.32;9.23;;;6.40;88.00;;;;;;6139298;28;20378;-86
2021/03/03 00:42:18;;;;;;;13.77;8.70;;;6.40;87.40;;;;;;6151454;28;20384;-83
2021/03/03 00:45:19;;;;;;;15.88;8.90;;;6.30;87.90;;;;;;6133739;28;20066;-85
2021/03/03 00:48:20;;;;;;;13.18;9.38;;;6.20;94.90;;;;;;6144255;28;20037;-85
2021/03/03 00:51:20;;;;;;;13.88;8.88;;;6.10;89.90;;;;;;6134995;28;20033;-85
2021/03/03 00:54:21;;;;;;;15.60;8.68;;;5.70;99.00;;;;;;6126291;28;20037;-88
2021/03/03 00:57:22;;;;;;;15.07;9.20;;;;;;;;;;6147196;28;20034;-85
2021/03/03 01:00:23;;;;;;;14.95;9.05;;;5.60;99.90;;;;;;6150261;28;20029;-85
2021/03/03 01:03:24;;;;;;;15.98;8.90;;;;;;;;;;6142573;28;20030;-85
2021/03/03 01:06:24;;;;;;;14.93;9.15;;;5.60;99.20;;;;;;6144059;28;20023;-87
2021/03/03 01:09:25;;;;;;;14.10;8.30;;;;;;;;;;6130759;28;20496;-85
2021/03/03 01:12:26;;;;;;;10.73;8.23;;;5.20;99.30;;;;;;6153084;28;20507;-86
2021/03/03 01:15:27;;;;;;;13.93;7.90;;;5.40;99.40;;;;;;6125717;28;20038;-85
2021/03/03 01:18:27;;;;;;;11.68;7.95;;;5.40;99.20;;;;;;6133083;28;20045;-85
2021/03/03 01:21:28;;;;;;;15.40;8.85;;;5.60;98.60;;;;;;6136789;28;20083;-89
2021/03/03 01:24:29;;;;;;;14.15;8.80;;;5.80;97.90;;;;;;6151636;28;20037;-85
2021/03/03 01:27:29;;;;;;;10.70;8.15;;;5.60;98.10;;;;;;6158235;28;20388;-89
2021/03/03 01:30:30;;;;;;;14.68;8.52;;;;;;;;;;6129197;28;20031;-87
2021/03/03 01:33:31;;;;;;;13.88;7.65;;;5.60;97.10;;;;;;6141786;28;20114;-85
2021/03/03 01:36:31;;;;;;;14.90;7.68;;;5.70;90.00;;;;;;6142794;28;20037;-85
2021/03/03 01:39:32;;;;;;;14.65;8.43;;;5.50;98.10;;;;;;6139157;28;20034;-87
2021/03/03 01:42:33;;;;;;;11.10;7.25;;;;;;;;;;6125457;28;20035;-85
2021/03/03 01:45:34;;;;;;;13.07;7.63;;;5.90;97.80;;;;;;6141061;28;20396;-91
2021/03/03 01:48:35;;;;;;;14.55;7.60;;;;;;;;;;6126137;28;20023;-85
2021/03/03 01:51:35;;;;;;;14.10;8.50;;;5.30;98.50;;;;;;6141270;28;20074;-86
2021/03/03 01:54:36;;;;;;;11.85;8.20;;;5.30;98.20;;;;;;6127643;28;20144;-86
2021/03/03 01:57:37;;;;;;;15.25;7.68;;;;;;;;;;6144033;28;20045;-86
2021/03/03 02:00:38;;;;;;;10.23;7.00;;;5.30;98.20;;;;;;6140707;28;20026;-88
2021/03/03 02:03:39;;;;;;;14.77;7.20;;;5.40;98.50;;;;;;6126542;28;20093;-87
2021/03/03 02:07:09;;;;;;;13.02;7.20;;;5.20;98.30;;;;;;6159463;28;20031;-88
2021/03/03 02:10:19;;;;;;;11.38;6.78;;;5.40;97.80;;;;;;6160106;28;20034;-85
2021/03/03 02:13:42;;;;;;;11.23;7.85;;;5.60;97.90;;;;;;6170642;28;20031;-86
2021/03/03 02:16:43;;;;;;;14.70;8.40;;;5.40;88.70;;;;;;6157695;28;20069;-90
2021/03/03 02:19:44;;;;;;;13.27;7.38;;;5.10;98.40;;;;;;6134300;28;20058;-86
2021/03/03 02:23:07;;;;;;;16.00;8.25;;;5.00;98.70;;;;;;6153516;28;21082;-85
2021/03/03 02:26:07;;;;;;;;;;;5.20;96.40;;;;;;6129300;28;20519;-85
2021/03/03 02:29:17;;;;;;;13.55;9.25;;;5.90;97.40;;;;;;6171650;28;19914;-85
2021/03/03 02:32:18;;;;;;;17.77;9.13;;;5.80;97.10;;;;;;6127135;28;20042;-85
2021/03/03 02:35:19;;;;;;;11.85;7.22;;;5.10;89.70;;;;;;6139040;28;20070;-85
2021/03/03 02:38:20;;;;;;;16.70;7.75;;;6.00;96.90;;;;;;6129050;28;20061;-89
2021/03/03 02:41:21;;;;;;;11.75;7.00;;;;;;;;;;6133909;28;20095;-85
2021/03/03 02:44:22;;;;;;;14.10;6.57;;;5.30;96.30;;;;;;6139281;28;20488;-84
2021/03/03 02:47:23;;;;;;;11.50;6.90;;;5.50;96.20;;;;;;6127719;28;20026;-87
2021/03/03 02:50:23;;;;;;;12.38;7.40;;;5.50;96.20;;;;;;6142842;28;20061;-87
2021/03/03 02:53:24;;;;;;;10.77;7.18;;;;;;;;;;6147433;28;20039;-85
2021/03/03 02:56:25;;;;;;;16.25;8.32;;;5.50;95.90;;;;;;6162899;28;20160;-85
2021/03/03 02:59:37;;;;;;;12.55;7.60;;;5.60;95.80;;;;;;6146306;28;20038;-87
2021/03/03 03:02:38;;;;;;;12.07;7.00;;;;;;;;;;6134417;28;20042;-86
2021/03/03 03:05:42;;;;;;;10.27;6.28;;;5.80;99.50;;;;;;6160053;28;20033;-85
2021/03/03 03:08:42;;;;;;;13.95;7.95;;;5.80;92.40;;;;;;6140675;28;20492;-86
2021/03/03 03:11:51;;;;;;;12.52;7.40;;;6.10;82.70;;;;;;6143773;28;20038;-88
2021/03/03 03:14:52;;;;;;;10.90;7.20;;;6.00;84.20;;;;;;6132840;28;20049;-84
2021/03/03 03:18:04;;;;;;;12.20;7.63;;;6.10;86.60;;;;;;6133326;28;20066;-85
2021/03/03 03:21:05;;;;;;;;;;;5.40;94.80;;;;;;6133685;28;20055;-86
2021/03/03 03:24:06;;;;;;;15.45;8.32;;;5.30;99.30;;;;;;6151245;28;19929;-86
2021/03/03 03:27:07;;;;;;;12.43;6.82;;;4.90;99.40;;;;;;6135104;28;20481;-86
2021/03/03 03:30:09;;;;;;;11.68;6.70;;;5.00;91.40;;;;;;6137830;28;20039;-86
2021/03/03 03:33:11;;;;;;;12.65;6.22;;;5.00;99.10;;;;;;6138316;28;20034;-88
2021/03/03 03:36:11;;;;;;;9.07;6.30;;;5.10;98.10;;;;;;6125395;28;20035;-87
2021/03/03 03:39:13;;;;;;;15.63;7.05;;;6.10;87.60;;;;;;6139342;28;20120;-85
2021/03/03 03:42:14;;;;;;;11.35;6.80;;;5.50;97.60;;;;;;6154427;28;20525;-85
2021/03/03 03:45:15;;;;;;;11.45;6.70;;;5.50;97.60;;;;;;6126637;28;20058;-86
2021/03/03 03:48:16;;;;;;;12.88;7.85;;;5.30;97.60;;;;;;6133329;28;20061;-89
2021/03/03 03:51:17;;;;;;;10.77;6.88;;;5.40;98.00;;;;;;6122835;28;20038;-85
2021/03/03 03:54:17;;;;;;;10.10;6.82;;;5.30;97.90;;;;;;6139220;28;20034;-85
2021/03/03 03:57:18;;;;;;;14.02;7.85;;;5.10;98.80;;;;;;6126828;28;20034;-85
2021/03/03 04:00:20;;;;;;;12.95;7.05;;;5.50;98.30;;;;;;6144558;28;20022;-86
2021/03/03 04:03:21;;;;;;;9.43;6.63;;;5.40;97.50;;;;;;6132016;28;20114;-88
2021/03/03 04:06:22;;;;;;;10.32;6.30;;;;;;;;;;6139886;28;20035;-87
2021/03/03 04:09:22;;;;;;;13.40;6.90;;;5.20;97.20;;;;;;6159149;28;20026;-85
2021/03/03 04:12:23;;;;;;;11.73;6.35;;;5.40;97.30;;;;;;6139162;28;20461;-86
2021/03/03 04:15:24;;;;;;;12.65;6.45;;;5.50;97.30;;;;;;6139205;28;20045;-86
2021/03/03 04:18:25;;;;;;;11.75;6.82;;;;;;;;;;6132763;28;20062;-86
2021/03/03 04:21:25;;;;;;;10.35;6.70;;;5.50;96.00;;;;;;6138724;28;20472;-88
2021/03/03 04:24:26;;;;;;;10.00;6.68;;;5.80;87.30;;;;;;6131768;28;20073;-83
2021/03/03 04:27:27;;;;;;;14.88;6.38;;;;;;;;;;6157323;28;20041;-86
2021/03/03 04:30:27;;;;;;;10.48;6.80;;;5.80;83.90;;;;;;6173399;28;20031;-88
2021/03/03 04:33:28;;;;;;;13.07;6.78;;;5.50;97.20;;;;;;6148033;28;20045;-85
2021/03/03 04:36:29;;;;;;;15.52;7.32;;;;;;;;;;6133604;28;20608;-84
2021/03/03 04:39:30;;;;;;;11.25;6.47;;;5.60;96.80;;;;;;6159296;28;20022;-86
2021/03/03 04:42:30;;;;;;;9.18;6.70;;;5.70;88.30;;;;;;6141747;28;20073;-89
2021/03/03 04:45:31;;;;;;;13.45;6.88;;;;;;;;;;6153647;28;20027;-86
2021/03/03 04:48:32;;;;;;;11.20;6.72;;;5.70;95.70;;;;;;6171058;28;20396;-85
2021/03/03 04:51:44;;;;;;;11.43;7.03;;;6.10;87.00;;;;;;6123596;28;20027;-85
2021/03/03 04:54:44;;;;;;;12.52;7.53;;;8.40;91.10;;;;;;6134628;28;20079;-88
2021/03/03 04:57:47;;;;;;;11.73;7.32;;;5.50;97.60;;;;;;6124832;28;20039;-87
2021/03/03 05:00:48;;;;;;;;;;;5.50;90.60;;;;;;6129839;28;20038;-85
2021/03/03 05:03:49;;;;;;;11.75;7.72;;;;;;;;;;6155651;28;20344;-87
2021/03/03 05:06:49;;;;;;;13.18;7.78;;;5.40;88.10;;;;;;6156336;28;20031;-86
2021/03/03 05:09:50;;;;;;;10.55;7.82;;;5.40;91.40;;;;;;6130717;28;20081;-87
2021/03/03 05:12:51;;;;;;;12.50;6.95;;;;;;;;;;6127851;28;20026;-83
2021/03/03 05:15:52;;;;;;;12.95;7.47;;;5.30;88.80;;;;;;6168650;28;20639;-87
2021/03/03 05:18:52;;;;;;;17.83;8.13;;;5.50;98.80;;;;;;6135036;28;20046;-84
2021/03/03 05:21:53;;;;;;;13.85;9.27;;;5.20;91.40;;;;;;6137277;28;20067;-87
2021/03/03 05:24:53;;;;;;;11.10;6.97;;;5.20;91.50;;;;;;6143447;28;20390;-85
2021/03/03 05:27:54;;;;;;;65.72;33.50;;;5.40;91.70;;;;;;6127352;28;20035;-89
2021/03/03 05:30:55;;;;;;;11.43;7.70;;;;;;;;;;6134185;28;20058;-85
2021/03/03 05:33:56;;;;;;;15.25;8.20;;;5.10;99.00;;;;;;6142098;28;20133;-85
2021/03/03 05:36:58;;;;;;;14.23;8.63;;;;;;;;;;6129326;28;20037;-88
2021/03/03 05:39:59;;;;;;;13.63;7.10;;;5.20;89.80;;;;;;6174425;28;20026;-90
2021/03/03 05:42:59;;;;;;;17.42;8.40;;;5.20;91.90;;;;;;6141735;28;20077;-85
2021/03/03 05:46:01;;;;;;;11.95;7.53;;;;;;;;;;6133671;28;20031;-85
2021/03/03 05:49:02;;;;;;;14.32;7.88;;;4.90;98.90;;;;;;6146317;28;20030;-85
2021/03/03 05:52:03;;;;;;;17.95;7.55;;;5.10;91.60;;;;;;6126001;28;20552;-90
2021/03/03 05:55:05;;;;;;;14.75;7.20;;;5.10;98.60;;;;;;6125345;28;20043;-85
2021/03/03 05:58:06;;;;;;;19.25;11.70;;;5.00;90.90;;;;;;6125107;28;20031;-85
2021/03/03 06:01:07;;;;;;;10.80;7.50;;;5.30;91.10;;;;;;6151581;28;20430;-86
2021/03/03 06:04:08;;;;;;;13.95;7.00;;;5.50;91.40;;;;;;6120616;28;20559;-87
2021/03/03 06:07:12;;;;;;;19.52;9.48;;;5.10;91.30;;;;;;6125447;28;20031;-87
2021/03/03 06:10:13;;;;;;;14.65;8.65;;;5.10;91.40;;;;;;6119049;28;20034;-88
2021/03/03 06:13:14;;;;;;;16.38;9.00;;;5.20;90.40;;;;;;6135378;28;20097;-86
2021/03/03 06:16:18;;;;;;;43.47;16.67;;;5.00;97.40;;;;;;6127171;28;20528;-85
2021/03/03 06:19:22;;;;;;;45.85;25.95;;;5.20;90.40;;;;;;6134097;28;20396;-90
2021/03/03 06:22:26;;;;;;;11.60;7.25;;;5.10;90.80;;;;;;6126444;28;20038;-86
2021/03/03 06:25:27;;;;;;;12.77;8.30;;;5.30;97.90;;;;;;6145716;28;20457;-82
2021/03/03 06:28:40;;;;;;;14.50;8.20;;;4.90;99.90;;;;;;6123673;28;20042;-88
2021/03/03 06:31:41;;;;;;;14.88;9.57;;;;;;;;;;6128019;28;20688;-88
2021/03/03 06:34:49;;;;;;;14.82;8.60;;;5.20;94.50;;;;;;6164082;28;20030;-88
2021/03/03 06:37:56;;;;;;;13.27;8.80;;;4.90;94.50;;;;;;6137991;28;20030;-86
2021/03/03 06:41:06;;;;;;;18.05;11.55;;;5.10;94.00;;;;;;6131377;28;20116;-85
2021/03/03 06:44:07;;;;;;;13.98;8.75;;;;;;;;;;6139891;28;20473;-87
2021/03/03 06:47:08;;;;;;;13.82;8.65;;;;;;;;;;6148145;28;20539;-87
2021/03/03 06:50:11;;;;;;;13.80;9.00;;;5.10;97.00;;;;;;6141148;28;20055;-87
2021/03/03 06:53:30;;;;;;;19.90;10.75;;;5.20;96.10;;;;;;6132496;28;20037;-85
2021/03/03 06:56:44;;;;;;;19.52;10.98;;;5.20;99.90;;;;;;6154831;28;20031;-82
2021/03/03 06:59:47;;;;;;;18.85;10.20;;;5.30;99.30;;;;;;6139840;28;20125;-89
2021/03/03 07:02:48;;;;;;;17.67;8.93;;;5.00;98.20;;;;;;6137533;28;20062;-87
2021/03/03 07:05:49;;;;;;;18.35;9.70;;;;;;;;;;6140772;28;20037;-90
2021/03/03 07:08:58;;;;;;;18.77;9.38;;;5.20;95.90;;;;;;6140420;28;20026;-89
2021/03/03 07:12:04;;;;;;;14.13;7.80;;;5.40;94.80;;;;;;6122501;28;20393;-87
2021/03/03 07:15:06;;;;;;;12.27;7.22;;;5.50;96.00;;;;;;6126114;28;20050;-88
2021/03/03 07:18:26;;;;;;;;;;;5.40;96.00;;;;;;6118051;28;20034;-83
2021/03/03 07:21:46;;;;;;;14.32;7.68;;;6.00;98.00;;;;;;6169094;28;19921;-84
2021/03/03 07:24:48;;;;;;;20.40;8.70;;;5.90;97.50;;;;;;6124125;28;20034;-90
2021/03/03 07:27:49;;;;;;;17.80;8.85;;;;;;;;;;6128817;28;20038;-83
2021/03/03 07:30:50;;;;;;;11.25;7.40;;;5.80;94.30;;;;;;6141213;28;20125;-84
2021/03/03 07:34:08;;;;;;;11.00;7.13;;;5.70;95.70;;;;;;6117003;28;20050;-88
2021/03/03 07:37:09;;;;;;;13.57;9.52;;;5.70;99.90;;;;;;6138806;28;20034;-84
2021/03/03 07:40:11;;;;;;;13.90;8.02;;;5.80;96.80;;;;;;6119571;28;20038;-89
2021/03/03 07:43:12;;;;;;;13.02;8.32;;;6.00;88.80;;;;;;6121379;28;20121;-82
2021/03/03 07:46:13;;;;;;;17.10;8.05;;;6.10;90.00;;;;;;6138481;28;20371;-82
2021/03/03 07:49:16;;;;;;;16.95;10.32;;;6.30;90.00;;;;;;6133410;28;20034;-82
2021/03/03 07:52:16;;;;;;;19.67;9.02;;;6.30;96.50;;;;;;6146591;28;20041;-83
2021/03/03 07:55:17;;;;;;;15.73;10.15;;;6.50;90.80;;;;;;6140131;28;20148;-83
2021/03/03 07:58:19;;;;;;;11.27;8.23;;;6.50;96.40;;;;;;6135645;28;20026;-83
2021/03/03 08:01:20;;;;;;;12.73;8.77;;;6.30;88.50;;;;;;6130361;28;20409;-83
2021/03/03 08:04:34;;;;;;;14.20;9.70;;;6.80;89.20;;;;;;6128020;28;20069;-86
2021/03/03 08:07:34;;;;;;;15.60;9.93;;;6.50;96.20;;;;;;6129149;28;20029;-85
2021/03/03 08:10:39;;;;;;;13.30;9.65;;;;;;;;;;6134849;28;20023;-85
2021/03/03 08:13:42;;;;;;;21.17;9.30;;;7.00;84.00;;;;;;6155580;28;20041;-88
2021/03/03 08:17:06;;;;;;;;;;;6.80;87.00;;;;;;6124162;28;20089;-83
2021/03/03 08:20:07;;;;;;;12.02;7.75;;;7.40;84.30;;;;;;6164305;28;19925;-83
2021/03/03 08:23:08;;;;;;;11.48;6.95;;;7.00;85.20;;;;;;6126721;28;20066;-86
2021/03/03 08:26:15;;;;;;;18.60;8.57;;;7.10;87.00;;;;;;6141792;28;20058;-82
2021/03/03 08:29:20;;;;;;;12.77;7.75;;;7.50;84.40;;;;;;6166603;28;20507;-83
2021/03/03 08:32:21;;;;;;;14.27;7.35;;;7.70;94.90;;;;;;6132741;28;20031;-87
2021/03/03 08:35:37;;;;;;;16.83;7.45;;;7.10;85.80;;;;;;6134025;28;20047;-85
2021/03/03 08:38:38;;;;;;;18.45;8.45;;;7.80;93.70;;;;;;6133315;28;20486;-84
2021/03/03 08:41:39;;;;;;;14.60;7.40;;;7.50;83.00;;;;;;6132261;28;20112;-83
2021/03/03 08:45:07;;;;;;;14.70;8.57;;;7.70;84.70;;;;;;6152588;28;20596;-84
2021/03/03 08:48:10;;;;;;;13.52;8.05;;;8.00;82.30;;;;;;6175322;28;20042;-84
2021/03/03 08:51:29;;;;;;;14.63;9.15;;;8.10;95.30;;;;;;6153647;28;20022;-84
2021/03/03 08:54:43;;;;;;;11.52;8.02;;;8.00;86.00;;;;;;6152619;28;20077;-84
2021/03/03 08:57:44;;;;;;;13.48;6.60;;;8.40;84.90;;;;;;6125038;28;20038;-84
2021/03/03 09:00:48;;;;;;;12.13;7.15;;;8.30;82.80;;;;;;6126008;28;20117;-83
2021/03/03 09:03:53;;;;;;;14.45;7.78;;;8.50;83.70;;;;;;6146293;28;20030;-84
2021/03/03 09:07:01;;;;;;;14.75;8.90;;;8.90;83.10;;;;;;6150469;28;20035;-83
2021/03/03 09:10:07;;;;;;;12.00;8.15;;;8.90;78.40;;;;;;6142324;28;20424;-84
2021/03/03 09:13:07;;;;;;;13.98;7.35;;;9.40;80.70;;;;;;6155114;28;20061;-84
2021/03/03 09:16:09;;;;;;;13.48;6.18;;;9.10;77.40;;;;;;6142983;28;20031;-88
2021/03/03 09:19:11;;;;;;;13.25;7.00;;;9.30;75.10;;;;;;6124394;28;20062;-81
2021/03/03 09:22:25;;;;;;;10.95;6.97;;;9.50;77.00;;;;;;6125323;28;20060;-85
2021/03/03 09:25:25;;;;;;;12.23;5.85;;;9.60;74.00;;;;;;6156275;28;20034;-82
2021/03/03 09:28:39;;;;;;;11.45;6.95;;;9.80;68.70;;;;;;6140546;28;20432;-81
2021/03/03 09:31:40;;;;;;;9.63;6.80;;;9.90;69.20;;;;;;6155965;28;20027;-83
2021/03/03 09:34:46;;;;;;;16.08;6.22;;;10.40;70.70;;;;;;6140968;28;20094;-81
2021/03/03 09:37:46;;;;;;;16.30;5.97;;;10.20;68.10;;;;;;6140478;28;20121;-83
2021/03/03 09:40:48;;;;;;;8.10;5.90;;;10.50;65.90;;;;;;6140426;28;20100;-83
2021/03/03 09:44:02;;;;;;;12.50;6.73;;;11.10;64.90;;;;;;6124498;28;20030;-81
2021/03/03 09:47:03;;;;;;;12.02;7.03;;;10.80;61.50;;;;;;6155030;28;20033;-83
2021/03/03 09:50:17;;;;;;;31.98;16.40;;;10.80;64.80;;;;;;6139347;28;20035;-78
2021/03/03 09:53:18;;;;;;;13.00;7.60;;;11.10;61.80;;;;;;6148647;28;20113;-78
2021/03/03 09:56:30;;;;;;;8.60;6.55;;;11.20;79.40;;;;;;6173821;28;20032;-80
2021/03/03 09:59:30;;;;;;;12.13;6.72;;;11.40;80.90;;;;;;6147552;28;20036;-83
2021/03/03 10:02:31;;;;;;;10.10;6.18;;;11.60;84.20;;;;;;6141177;28;20023;-83
2021/03/03 10:05:32;;;;;;;8.90;5.75;;;11.60;82.10;;;;;;6123770;28;20118;-84
2021/03/03 10:08:33;;;;;;;11.70;6.68;;;12.00;77.00;;;;;;6123153;28;20109;-85
2021/03/03 10:11:34;;;;;;;10.18;6.63;;;12.00;64.10;;;;;;6140295;28;20037;-84
2021/03/03 10:14:49;;;;;;;8.33;5.33;;;12.30;76.30;;;;;;6139879;28;20492;-81
2021/03/03 10:17:54;;;;;;;11.13;6.43;;;12.50;58.80;;;;;;6125179;28;20026;-82
2021/03/03 10:20:56;;;;;;;10.43;6.90;;;12.80;90.80;;;;;;6130745;28;20061;-82
2021/03/03 10:23:56;;;;;;;11.38;6.68;;;12.90;91.50;;;;;;6154318;28;20089;-81
2021/03/03 10:26:57;;;;;;;10.00;6.78;;;13.60;77.90;;;;;;6138146;28;20042;-82
2021/03/03 10:29:58;;;;;;;10.98;7.78;;;;;;;;;;6163725;28;20026;-82
2021/03/03 10:32:59;;;;;;;9.85;6.53;;;;;;;;;;6138709;28;20050;-81
2021/03/03 10:36:01;;;;;;;16.45;8.07;;;13.70;78.80;;;;;;6154394;28;20035;-81
2021/03/03 10:39:02;;;;;;;13.02;8.48;;;13.70;69.20;;;;;;6138688;28;20381;-81
2021/03/03 10:42:06;;;;;;;9.27;5.50;;;13.70;54.50;;;;;;6138363;28;20031;-80
2021/03/03 10:45:20;;;;;;;11.18;7.50;;;13.90;52.90;;;;;;6114737;28;20038;-84
2021/03/03 10:48:30;;;;;;;8.80;6.20;;;13.80;65.80;;;;;;6161098;28;20456;-82
2021/03/03 10:51:35;;;;;;;12.57;6.53;;;13.70;85.20;;;;;;6131152;28;20031;-82
2021/03/03 10:54:36;;;;;;;9.18;5.75;;;;;;;;;;6145364;28;20108;-82
2021/03/03 10:57:50;;;;;;;15.20;8.05;;;13.80;73.80;;;;;;6156416;28;20035;-83
2021/03/03 11:00:56;;;;;;;10.27;7.97;;;13.80;69.20;;;;;;6123953;28;20402;-85
2021/03/03 11:03:58;;;;;;;10.25;8.20;;;13.90;67.10;;;;;;6138498;28;20073;-82
2021/03/03 11:07:01;;;;;;;9.30;6.47;;;14.10;68.40;;;;;;6137815;28;20053;-83
2021/03/03 11:10:02;;;;;;;17.17;6.85;;;14.20;85.10;;;;;;6137846;28;20601;-84
2021/03/03 11:13:03;;;;;;;11.48;7.68;;;14.20;67.60;;;;;;6137525;28;20038;-80
2021/03/03 11:16:03;;;;;;;16.52;7.32;;;14.50;71.90;;;;;;6122286;28;20030;-81
2021/03/03 11:19:04;;;;;;;11.00;6.68;;;14.20;55.30;;;;;;6121836;28;20611;-81
2021/03/03 11:22:05;;;;;;;9.70;6.18;;;14.30;52.00;;;;;;6138018;28;20629;-82
2021/03/03 11:25:07;;;;;;;11.25;5.78;;;;;;;;;;6146612;28;20097;-86
2021/03/03 11:28:07;;;;;;;9.27;6.15;;;14.60;50.40;;;;;;6154465;28;20069;-81
2021/03/03 11:31:08;;;;;;;8.30;5.75;;;14.60;53.80;;;;;;6121257;28;20113;-81
2021/03/03 11:34:09;;;;;;;9.18;5.78;;;14.80;52.80;;;;;;6121563;28;20201;-84
2021/03/03 11:37:10;;;;;;;13.03;6.00;;;14.70;53.60;;;;;;6159850;28;20572;-81
2021/03/03 11:40:11;;;;;;;12.30;7.32;;;14.80;53.40;;;;;;6160164;28;20041;-83
2021/03/03 11:43:12;;;;;;;13.43;7.28;;;14.90;51.80;;;;;;6176913;28;20030;-81
2021/03/03 11:46:13;;;;;;;10.98;6.18;;;15.00;52.90;;;;;;6149368;28;20052;-83
2021/03/03 11:49:14;;;;;;;9.77;5.72;;;15.20;54.40;;;;;;6137557;28;20128;-84
2021/03/03 11:52:14;;;;;;;9.95;6.00;;;15.30;54.20;;;;;;6153434;28;20078;-83
2021/03/03 11:55:15;;;;;;;16.63;6.32;;;15.40;53.90;;;;;;6152904;28;20043;-81
2021/03/03 11:58:16;;;;;;;15.75;6.35;;;15.50;54.60;;;;;;6121428;28;20519;-81
2021/03/03 12:01:16;;;;;;;10.00;6.38;;;15.50;53.20;;;;;;6136792;28;20081;-81
2021/03/03 12:04:17;;;;;;;9.35;6.53;;;15.60;53.10;;;;;;6125194;28;20062;-83
2021/03/03 12:07:18;;;;;;;15.52;7.75;;;15.60;51.70;;;;;;6175713;28;20027;-80
2021/03/03 12:10:18;;;;;;;11.68;7.07;;;15.70;52.00;;;;;;6155579;28;20038;-82
2021/03/03 12:13:19;;;;;;;12.88;7.35;;;15.30;51.50;;;;;;6126737;28;20045;-83
2021/03/03 12:16:20;;;;;;;12.80;7.30;;;15.70;54.30;;;;;;6136167;28;20085;-84
2021/03/03 12:19:20;;;;;;;14.73;8.35;;;15.70;54.30;;;;;;6121195;28;20450;-82
2021/03/03 12:22:21;;;;;;;14.15;8.40;;;15.60;55.50;;;;;;6137457;28;20038;-83
2021/03/03 12:25:22;;;;;;;14.43;9.13;;;15.70;72.80;;;;;;6137290;28;20058;-83
2021/03/03 12:28:23;;;;;;;16.42;10.38;;;15.70;56.60;;;;;;6137236;28;20047;-82
2021/03/03 12:31:23;;;;;;;17.05;11.05;;;15.60;55.70;;;;;;6137750;28;20031;-82
2021/03/03 12:34:24;;;;;;;19.92;11.77;;;15.60;57.00;;;;;;6136632;28;20038;-81
2021/03/03 12:37:26;;;;;;;20.80;12.57;;;15.80;56.80;;;;;;6120986;28;20031;-81
2021/03/03 12:40:26;;;;;;;21.42;11.52;;;15.40;57.10;;;;;;6136426;28;20112;-81
2021/03/03 12:43:27;;;;;;;19.30;11.68;;;15.40;56.80;;;;;;6122734;28;20034;-82
2021/03/03 12:46:28;;;;;;;19.00;11.48;;;15.50;56.80;;;;;;6133872;28;20531;-83
2021/03/03 12:49:29;;;;;;;24.55;12.68;;;15.20;56.40;;;;;;6143650;28;20448;-82
2021/03/03 12:52:29;;;;;;;20.00;12.15;;;15.20;56.60;;;;;;6144312;28;20503;-82
2021/03/03 12:55:30;;;;;;;23.73;13.07;;;15.10;58.00;;;;;;6175898;28;20100;-81
2021/03/03 12:58:31;;;;;;;18.85;11.95;;;15.10;55.00;;;;;;6152821;28;20031;-82
2021/03/03 13:01:31;;;;;;;19.23;11.85;;;15.20;56.20;;;;;;6121514;28;20030;-81
2021/03/03 13:04:32;;;;;;;23.63;11.27;;;15.20;54.00;;;;;;6137438;28;21259;-81
2021/03/03 13:07:33;;;;;;;20.80;12.00;;;15.30;55.60;;;;;;6137206;28;20031;-83
2021/03/03 13:10:33;;;;;;;17.98;10.77;;;15.40;53.50;;;;;;6137229;28;20034;-82
2021/03/03 13:13:34;;;;;;;23.02;11.50;;;15.40;53.40;;;;;;6121141;28;20045;-82
2021/03/03 13:16:35;;;;;;;18.90;11.45;;;15.60;53.10;;;;;;6137013;28;20054;-81
2021/03/03 13:19:35;;;;;;;18.88;10.48;;;15.60;51.90;;;;;;6122351;28;20053;-82
2021/03/03 13:22:36;;;;;;;16.67;10.90;;;16.20;67.80;;;;;;6156936;28;20485;-81
2021/03/03 13:25:37;;;;;;;17.08;11.13;;;15.80;51.20;;;;;;6125103;28;20034;-82
2021/03/03 13:28:38;;;;;;;16.52;10.95;;;15.90;50.60;;;;;;6141008;28;20445;-81
2021/03/03 13:31:39;;;;;;;23.73;12.32;;;15.90;49.10;;;;;;6141022;28;20037;-81
2021/03/03 13:34:40;;;;;;;15.15;10.23;;;16.90;53.50;;;;;;6125009;28;20039;-81
2021/03/03 13:37:40;;;;;;;19.17;10.35;;;16.00;49.20;;;;;;6148224;28;20034;-81
2021/03/03 13:40:43;;;;;;;16.30;10.65;;;16.00;48.60;;;;;;6141851;28;20524;-82
2021/03/03 13:43:44;;;;;;;18.33;10.93;;;16.70;49.40;;;;;;6163715;28;20026;-81
2021/03/03 13:46:45;;;;;;;16.83;10.32;;;;;;;;;;6156870;28;20473;-81
2021/03/03 13:49:46;;;;;;;17.23;10.05;;;16.00;44.90;;;;;;6162422;28;20392;-81
2021/03/03 13:52:47;;;;;;;18.98;11.55;;;16.40;46.30;;;;;;6149456;28;20034;-82
2021/03/03 13:55:48;;;;;;;27.30;12.95;;;15.70;48.40;;;;;;6142817;28;20050;-83
2021/03/03 13:58:49;;;;;;;20.37;12.93;;;15.60;50.50;;;;;;6160252;28;20027;-84
2021/03/03 14:01:50;;;;;;;26.50;11.60;;;15.40;64.80;;;;;;6156317;28;20034;-81
2021/03/03 14:04:50;;;;;;;21.08;11.77;;;15.40;49.10;;;;;;6139819;28;20121;-81
2021/03/03 14:07:51;;;;;;;19.85;11.82;;;15.10;48.70;;;;;;6162769;28;20037;-83
2021/03/03 14:10:52;;;;;;;24.90;11.73;;;;;;;;;;6160000;28;20035;-81
2021/03/03 14:13:53;;;;;;;17.60;12.25;;;15.40;48.60;;;;;;6158381;28;20043;-83
2021/03/03 14:16:53;;;;;;;20.17;12.30;;;15.20;51.30;;;;;;6151231;28;20033;-83
2021/03/03 14:19:54;;;;;;;18.50;11.48;;;15.40;50.60;;;;;;6179111;28;20502;-80
2021/03/03 14:22:55;;;;;;;26.73;13.35;;;15.40;49.80;;;;;;6154466;28;20033;-81
2021/03/03 14:25:55;;;;;;;20.30;12.68;;;15.40;48.20;;;;;;6124071;28;20062;-81
2021/03/03 14:28:56;;;;;;;17.63;11.32;;;15.40;48.00;;;;;;6133357;28;20031;-82
2021/03/03 14:31:56;;;;;;;18.60;11.02;;;15.50;48.50;;;;;;6157782;28;20046;-83
2021/03/03 14:34:57;;;;;;;15.65;10.55;;;15.50;78.50;;;;;;6150054;28;20477;-81
2021/03/03 14:37:58;;;;;;;16.80;10.27;;;15.30;65.90;;;;;;6145461;28;20034;-81
2021/03/03 14:41:01;;;;;;;24.70;12.02;;;15.30;65.00;;;;;;6154244;28;20457;-83
2021/03/03 14:44:02;;;;;;;20.50;12.00;;;15.40;78.30;;;;;;6128420;28;20131;-85
2021/03/03 14:47:03;;;;;;;15.65;11.13;;;15.10;76.40;;;;;;6123356;28;20488;-81
2021/03/03 14:50:05;;;;;;;19.05;11.05;;;14.70;63.70;;;;;;6144367;28;20080;-82
2021/03/03 14:53:15;;;;;;;21.45;12.40;;;15.30;77.90;;;;;;6162581;28;20030;-80
2021/03/03 14:56:17;;;;;;;17.95;10.45;;;15.30;78.80;;;;;;6144432;28;20038;-82
2021/03/03 14:59:17;;;;;;;19.73;10.65;;;15.10;79.30;;;;;;6138952;28;20030;-82
2021/03/03 15:02:19;;;;;;;17.15;10.65;;;15.20;80.50;;;;;;6150515;28;20061;-81
2021/03/03 15:05:20;;;;;;;16.50;10.33;;;14.80;81.60;;;;;;6145401;28;20076;-85
2021/03/03 15:08:20;;;;;;;20.85;12.20;;;15.60;69.00;;;;;;6144986;28;20106;-82
2021/03/03 15:11:21;;;;;;;17.70;10.48;;;;;;;;;;6145051;28;20524;-83
2021/03/03 15:14:22;;;;;;;15.73;9.88;;;15.10;80.30;;;;;;6161125;28;20630;-82
2021/03/03 15:17:23;;;;;;;21.27;12.50;;;;;;;;;;6145336;28;20076;-84
2021/03/03 15:20:23;;;;;;;15.63;10.68;;;14.60;74.40;;;;;;6174505;28;20054;-81
2021/03/03 15:23:24;;;;;;;18.00;11.32;;;14.60;71.80;;;;;;6177078;28;20045;-81
2021/03/03 15:26:25;;;;;;;20.92;12.27;;;15.00;85.50;;;;;;6160929;28;20454;-81
2021/03/03 15:29:25;;;;;;;20.27;13.52;;;14.60;85.80;;;;;;6160524;28;20765;-81
2021/03/03 15:32:26;;;;;;;16.90;11.07;;;;;;;;;;6160769;28;20077;-82
2021/03/03 15:35:27;;;;;;;20.15;11.25;;;14.30;84.40;;;;;;6156439;28;20049;-82
2021/03/03 15:38:28;;;;;;;17.33;10.52;;;14.60;63.40;;;;;;6122104;28;20085;-80
2021/03/03 15:41:29;;;;;;;15.93;9.20;;;;;;;;;;6138157;28;20031;-81
2021/03/03 15:44:29;;;;;;;13.38;10.18;;;14.40;50.00;;;;;;6152966;28;20037;-79
2021/03/03 15:47:30;;;;;;;15.75;8.65;;;14.30;53.70;;;;;;6154291;28;20027;-80
2021/03/03 15:50:31;;;;;;;12.93;7.93;;;14.20;50.80;;;;;;6160523;28;20141;-80
2021/03/03 15:53:31;;;;;;;15.00;7.82;;;14.20;51.70;;;;;;6144194;28;20129;-79
2021/03/03 15:56:32;;;;;;;11.65;6.30;;;14.10;51.80;;;;;;6128823;28;20397;-80
2021/03/03 15:59:34;;;;;;;10.45;6.10;;;14.00;49.90;;;;;;6121145;28;20142;-80